Oakland, CA (94620)

1:18 PM PST on December 18, 2014 (GMT -0800)
Downtown Oakland | Change Station
CLOSE
Current Station
Personal Weather Station
Location: Oakland, CA
Elevation: 16 ft
Nearby Weather Stations

Elev 16 ft 37.81 °N, 122.27 °W | Updated 3 minutes ago

Overcast
Overcast
60.2 °F
Feels Like 60.2 °F
N
0.0
Wind Variable Wind from SE
Gusts 5.0 mph

Today
High -- | Low -- °F
--% Chance of Precip.
Yesterday
High -- | Low -- °F
Precip. -- in
7:19 AM 4:52 PM
Waning Crescent, 12% visible
Pressure 30.15 in
Visibility 10.0 miles
Clouds Few 1000 ft
Mostly Cloudy 5000 ft
Dew Point 53 °F
Humidity 78%
Rainfall 0.02 in
Snow Depth Not available.
UV 1 out of 12
Pollen 3.50 out of 12
Air Quality Not available.
Flu Activity Not available.
METAR KOAK 182053Z 11004KT 10SM FEW010 BKN050 15/11 A3015 RMK AO2 SLP208 T01500106 58010

More Conditions Fewer Conditions

Pressure 30.15 in
Visibility 10.0 miles
Clouds Few 1000 ft
Mostly Cloudy 5000 ft
Dew Point 53 °F
Humidity 78%
Rainfall 0.02 in
Snow Depth Not available.
UV 1 out of 12
Pollen 3.50 out of 12
Air Quality Not available.
Flu Activity Not available.
METAR KOAK 182053Z 11004KT 10SM FEW010 BKN050 15/11 A3015 RMK AO2 SLP208 T01500106 58010

More Conditions Fewer Conditions

10-Day Weather Forecast

Almanac

Astronomy

Dec. 18, 2014 Rise Set
Actual Time
Civil Twilight
Nautical Twilight
Astronomical Twilight
Moon
Length of Visible Light
Length of Day
Tomorrow will be .
, % of the Moon is Illuminated

Today's Extremes

State Highs State Lows

Community

WunderPhotos

Upload Photos

1,778,998 photos uploaded!

WunderBlogs® & News

Nearby

Air Quality

  Air Quality AQ Index Pollutant
Not available.

Snow Depth

Station Depth Elevation

Earthquake Activity

City Distance Mag. Time & Date
Minimum magnitude displayed is 2.5.

Coastal Water Temperatures

Place Temperature

Nearby Weather Stations